Time;durP1;ratioP1;P1;durP2;ratioP2;P2;SDS_P1;SDS_P2;PMS_P1;PMS_P2;Temp;Humidity;BMP_temperature;BMP_pressure;BME280_temperature;BME280_humidity;BME280_pressure;Samples;Min_cycle;Max_cycle;Signal;HPM_P1;HPM_P2
2022/07/31 00:00:33;;;;;;;4.88;1.63;;;19.70;86.40;;;;;;4247689;28;20047;-82
2022/07/31 00:02:35;;;;;;;3.03;1.50;;;19.70;86.50;;;;;;4229467;28;20048;-82
2022/07/31 00:04:36;;;;;;;5.13;1.52;;;19.70;86.60;;;;;;4247071;27;20051;-82
2022/07/31 00:06:37;;;;;;;3.75;1.73;;;19.70;86.70;;;;;;4249448;27;20054;-82
2022/07/31 00:08:38;;;;;;;6.75;1.42;;;19.70;86.90;;;;;;4251047;27;20043;-82
2022/07/31 00:10:39;;;;;;;4.45;1.40;;;19.70;87.00;;;;;;4251108;27;20065;-82
2022/07/31 00:12:40;;;;;;;4.65;1.30;;;19.70;87.10;;;;;;4258126;27;20043;-82
2022/07/31 00:14:40;;;;;;;4.10;1.50;;;19.70;87.10;;;;;;4268078;27;20102;-82
2022/07/31 00:16:41;;;;;;;6.05;2.13;;;19.70;87.20;;;;;;4232934;28;20484;-82
2022/07/31 00:18:42;;;;;;;5.32;1.50;;;19.70;87.30;;;;;;4267891;27;20076;-82
2022/07/31 00:20:43;;;;;;;4.88;2.00;;;19.70;87.40;;;;;;4267251;27;20042;-82
2022/07/31 00:22:46;;;;;;;7.28;1.45;;;19.70;87.50;;;;;;4267835;27;20504;-82
2022/07/31 00:24:46;;;;;;;3.30;1.60;;;19.70;87.50;;;;;;4249393;27;20047;-82
2022/07/31 00:26:47;;;;;;;5.22;1.35;;;19.60;87.50;;;;;;4267932;27;20049;-82
2022/07/31 00:28:48;;;;;;;2.92;1.50;;;19.60;87.60;;;;;;4267854;27;20053;-82
2022/07/31 00:30:48;;;;;;;5.10;1.45;;;19.60;87.70;;;;;;4267921;27;20071;-82
2022/07/31 00:32:49;;;;;;;4.68;1.70;;;19.60;87.90;;;;;;4267693;27;20035;-82
2022/07/31 00:34:50;;;;;;;2.45;1.45;;;19.60;87.90;;;;;;4249748;27;20078;-82
2022/07/31 00:36:51;;;;;;;3.08;1.35;;;19.60;88.00;;;;;;4267946;27;20046;-82
2022/07/31 00:38:52;;;;;;;2.15;1.27;;;19.60;88.10;;;;;;4249200;27;20039;-82
2022/07/31 00:40:53;;;;;;;2.78;1.75;;;19.60;88.20;;;;;;4233256;27;20415;-82
2022/07/31 00:42:53;;;;;;;2.35;1.40;;;19.60;88.20;;;;;;4232515;28;20047;-82
2022/07/31 00:44:54;;;;;;;4.28;1.40;;;19.60;88.30;;;;;;4250186;27;20054;-82
2022/07/31 00:46:55;;;;;;;2.00;1.20;;;19.60;88.40;;;;;;4232284;28;20051;-82
2022/07/31 00:48:55;;;;;;;4.38;1.80;;;19.60;88.50;;;;;;4255431;27;20043;-82
2022/07/31 00:50:56;;;;;;;3.58;1.30;;;19.50;88.60;;;;;;4267680;27;20045;-82
2022/07/31 00:52:57;;;;;;;2.85;1.38;;;19.50;88.60;;;;;;4267108;27;20054;-82
2022/07/31 00:54:57;;;;;;;2.15;1.13;;;19.50;88.70;;;;;;4267463;27;20509;-82
2022/07/31 00:56:58;;;;;;;3.75;1.30;;;19.50;88.70;;;;;;4267430;27;20510;-81
2022/07/31 00:58:59;;;;;;;3.22;1.23;;;19.50;88.70;;;;;;4267467;27;20039;-82
2022/07/31 01:01:00;;;;;;;3.95;1.30;;;19.50;88.70;;;;;;4267460;27;20379;-82
2022/07/31 01:03:01;;;;;;;4.50;1.67;;;19.50;88.60;;;;;;4266912;27;20478;-82
2022/07/31 01:05:01;;;;;;;2.20;1.27;;;19.50;88.70;;;;;;4249220;27;20031;-82
2022/07/31 01:07:03;;;;;;;4.35;1.42;;;19.50;88.70;;;;;;4262157;27;20049;-82
2022/07/31 01:09:04;;;;;;;3.97;1.40;;;19.50;88.80;;;;;;4250155;27;20130;-82
2022/07/31 01:11:44;;;;;;;2.78;1.40;;;19.50;88.80;;;;;;4250178;27;20399;-82
2022/07/31 01:13:55;;;;;;;4.90;1.67;;;19.50;89.20;;;;;;4246174;27;20079;-81
2022/07/31 01:16:00;;;;;;;4.20;1.52;;;19.50;88.90;;;;;;4249941;27;20487;-82
2022/07/31 01:18:01;;;;;;;1.55;1.10;;;19.50;88.80;;;;;;4249534;27;20073;-82
2022/07/31 01:20:03;;;;;;;2.55;1.20;;;19.50;88.80;;;;;;4249705;27;20079;-82
2022/07/31 01:22:21;;;;;;;3.97;1.20;;;19.40;88.80;;;;;;4249766;27;20051;-82
2022/07/31 01:24:45;;;;;;;2.25;1.20;;;19.40;89.00;;;;;;4231751;28;20054;-82
2022/07/31 01:27:09;;;;;;;4.10;1.48;;;19.40;89.30;;;;;;4232152;28;20099;-82
2022/07/31 01:29:21;;;;;;;3.22;1.67;;;19.30;89.60;;;;;;4249895;27;20513;-82
2022/07/31 01:31:29;;;;;;;2.20;1.30;;;19.30;89.60;;;;;;4250024;27;20122;-82
2022/07/31 01:33:37;;;;;;;2.10;1.33;;;19.30;89.60;;;;;;4249760;27;20047;-82
2022/07/31 01:35:46;;;;;;;4.30;1.70;;;19.20;89.60;;;;;;4228881;28;20051;-82
2022/07/31 01:38:03;;;;;;;5.15;1.80;;;19.20;89.80;;;;;;4261285;27;20046;-82
2022/07/31 01:40:09;;;;;;;3.28;1.50;;;19.20;89.80;;;;;;4266715;27;20074;-82
2022/07/31 01:42:14;;;;;;;4.45;1.63;;;19.20;89.90;;;;;;4263328;27;20035;-81
2022/07/31 01:44:16;;;;;;;8.60;1.67;;;19.10;89.80;;;;;;4249594;27;20063;-82
2022/07/31 01:46:20;;;;;;;2.45;1.58;;;19.10;89.90;;;;;;4249899;27;20406;-82
2022/07/31 01:48:21;;;;;;;3.92;1.52;;;19.10;90.00;;;;;;4249205;27;20043;-82
2022/07/31 01:50:24;;;;;;;3.60;1.45;;;19.00;90.00;;;;;;4214651;28;20056;-82
2022/07/31 01:52:28;;;;;;;4.60;1.80;;;19.00;90.00;;;;;;4231282;28;20059;-82
2022/07/31 01:54:30;;;;;;;2.88;1.50;;;19.00;90.10;;;;;;4250207;27;20047;-82
2022/07/31 01:56:32;;;;;;;5.25;1.70;;;19.00;90.10;;;;;;4248990;27;20122;-82
2022/07/31 01:58:35;;;;;;;4.18;1.35;;;18.90;90.10;;;;;;4249626;27;20047;-82
2022/07/31 02:00:37;;;;;;;3.97;1.67;;;18.90;90.20;;;;;;4249515;27;20408;-82
2022/07/31 02:02:40;;;;;;;2.55;1.60;;;18.90;90.20;;;;;;4259231;27;20046;-82
2022/07/31 02:04:41;;;;;;;5.18;1.70;;;18.90;90.30;;;;;;4266702;27;20063;-81
2022/07/31 02:06:45;;;;;;;2.28;1.40;;;18.90;90.60;;;;;;4266763;27;20050;-81
2022/07/31 02:08:49;;;;;;;4.32;2.38;;;18.90;90.40;;;;;;4230664;28;20438;-81
2022/07/31 02:10:51;;;;;;;2.22;1.42;;;18.90;90.50;;;;;;4266174;27;20043;-82
2022/07/31 02:12:54;;;;;;;3.65;1.60;;;18.90;90.50;;;;;;4266402;27;20482;-82
2022/07/31 02:14:55;;;;;;;4.18;1.90;;;18.90;90.50;;;;;;4231282;28;20051;-82
2022/07/31 02:16:58;;;;;;;4.40;2.45;;;18.90;90.70;;;;;;4250898;27;20118;-82
2022/07/31 02:19:00;;;;;;;3.35;1.55;;;18.90;90.60;;;;;;4231192;28;20043;-82
2022/07/31 02:21:01;;;;;;;3.97;1.60;;;18.90;90.70;;;;;;4248795;27;20055;-82
2022/07/31 02:23:02;;;;;;;2.35;1.63;;;18.80;90.60;;;;;;4213992;28;20052;-82
2022/07/31 02:25:04;;;;;;;2.63;1.60;;;18.90;90.70;;;;;;4214233;28;20086;-82
2022/07/31 02:27:06;;;;;;;2.47;1.33;;;18.80;90.70;;;;;;4249204;27;20047;-82
2022/07/31 02:29:10;;;;;;;3.67;1.85;;;18.80;90.70;;;;;;4230035;28;20047;-83
2022/07/31 02:31:13;;;;;;;3.60;1.50;;;18.80;90.70;;;;;;4248940;27;20171;-82
2022/07/31 02:33:24;;;;;;;1.98;1.48;;;18.80;90.70;;;;;;4262440;27;20047;-82
2022/07/31 02:35:25;;;;;;;3.47;1.90;;;18.80;90.80;;;;;;4266348;27;20095;-82
2022/07/31 02:37:28;;;;;;;3.63;1.30;;;18.80;90.70;;;;;;4258219;27;20407;-82
2022/07/31 02:39:31;;;;;;;4.70;1.50;;;18.80;90.70;;;;;;4214130;28;20127;-82
2022/07/31 02:41:32;;;;;;;3.55;1.65;;;18.80;90.70;;;;;;4249000;27;20047;-82
2022/07/31 02:43:34;;;;;;;3.20;1.60;;;18.80;90.70;;;;;;4248975;27;20050;-82
2022/07/31 02:45:35;;;;;;;3.78;1.63;;;18.80;90.70;;;;;;4248188;27;20051;-82
2022/07/31 02:47:37;;;;;;;2.35;1.80;;;18.80;90.70;;;;;;4248881;27;20387;-82
2022/07/31 02:49:38;;;;;;;4.60;1.45;;;18.80;90.70;;;;;;4248820;27;20082;-82
2022/07/31 02:51:40;;;;;;;2.28;1.77;;;18.80;90.70;;;;;;4248951;27;20070;-82
2022/07/31 02:53:41;;;;;;;4.90;1.60;;;18.80;90.70;;;;;;4213853;28;20059;-81
2022/07/31 02:55:44;;;;;;;1.90;1.48;;;18.70;90.70;;;;;;4248739;27;20395;-82
2022/07/31 02:57:46;;;;;;;4.10;1.73;;;18.70;90.80;;;;;;4230295;28;20047;-82
2022/07/31 02:59:47;;;;;;;4.47;1.90;;;18.70;90.80;;;;;;4259044;27;20050;-82
2022/07/31 03:01:48;;;;;;;2.05;1.50;;;18.70;90.80;;;;;;4265855;27;20035;-82
2022/07/31 03:03:49;;;;;;;5.38;1.98;;;18.70;90.70;;;;;;4266232;27;20522;-83
2022/07/31 03:05:49;;;;;;;6.93;1.83;;;18.70;90.80;;;;;;4214177;28;20090;-81
2022/07/31 03:07:50;;;;;;;6.78;1.90;;;18.70;90.80;;;;;;4249561;27;20126;-82
2022/07/31 03:09:51;;;;;;;4.95;1.98;;;18.70;90.80;;;;;;4230788;28;20540;-82
2022/07/31 03:11:51;;;;;;;6.35;2.08;;;18.60;90.90;;;;;;4249301;27;20035;-82
2022/07/31 03:13:54;;;;;;;3.85;2.15;;;18.60;90.90;;;;;;4248907;27;20126;-82
2022/07/31 03:15:56;;;;;;;4.63;2.10;;;18.60;91.00;;;;;;4248776;27;20062;-82
2022/07/31 03:17:57;;;;;;;5.82;1.65;;;18.60;91.00;;;;;;4249355;27;20175;-82
2022/07/31 03:19:58;;;;;;;4.07;1.55;;;18.60;91.00;;;;;;4216473;28;20439;-82
2022/07/31 03:21:59;;;;;;;4.13;1.50;;;18.60;91.00;;;;;;4249834;27;20039;-83
2022/07/31 03:24:01;;;;;;;5.80;2.10;;;18.60;91.10;;;;;;4252015;27;20399;-82
2022/07/31 03:26:04;;;;;;;2.13;1.40;;;18.60;91.10;;;;;;4217417;28;20055;-81
2022/07/31 03:28:05;;;;;;;4.47;1.77;;;18.60;91.10;;;;;;4233774;28;20156;-82
2022/07/31 03:30:14;;;;;;;5.30;2.53;;;18.60;91.50;;;;;;4224028;28;20052;-83
2022/07/31 03:32:14;;;;;;;2.87;1.47;;;18.50;91.20;;;;;;4266105;27;20084;-82
2022/07/31 03:34:16;;;;;;;4.32;2.78;;;18.50;91.20;;;;;;4263665;27;20039;-82
2022/07/31 03:36:16;;;;;;;4.57;2.33;;;18.50;91.30;;;;;;4263716;27;20073;-82
2022/07/31 03:38:17;;;;;;;5.70;1.50;;;18.50;91.30;;;;;;4242876;28;20047;-82
2022/07/31 03:40:18;;;;;;;2.42;1.60;;;18.40;91.30;;;;;;4262937;27;20070;-83
2022/07/31 03:42:19;;;;;;;3.30;1.35;;;18.40;91.40;;;;;;4243902;28;20138;-82
2022/07/31 03:44:20;;;;;;;3.70;1.70;;;18.40;91.40;;;;;;4242241;28;20127;-82
2022/07/31 03:46:23;;;;;;;5.70;2.50;;;18.40;91.50;;;;;;4233955;28;20055;-82
2022/07/31 03:48:25;;;;;;;3.55;2.10;;;18.40;91.50;;;;;;4246524;28;20051;-82
2022/07/31 03:50:27;;;;;;;3.42;1.90;;;18.40;91.50;;;;;;4247642;27;20043;-82
2022/07/31 03:52:30;;;;;;;5.07;1.65;;;18.40;91.60;;;;;;4247879;27;20124;-83
2022/07/31 03:54:30;;;;;;;4.13;2.00;;;18.30;91.60;;;;;;4253089;28;20051;-82
2022/07/31 03:56:32;;;;;;;2.42;1.45;;;18.30;91.60;;;;;;4245485;28;20048;-82
2022/07/31 03:58:33;;;;;;;6.38;1.95;;;18.30;91.70;;;;;;4247631;27;20078;-82
2022/07/31 04:00:34;;;;;;;2.72;1.80;;;18.30;91.70;;;;;;4237240;28;20050;-82
2022/07/31 04:02:35;;;;;;;5.97;2.13;;;18.30;91.70;;;;;;4229606;28;20052;-82
2022/07/31 04:04:37;;;;;;;4.50;1.73;;;18.30;91.80;;;;;;4229567;28;20150;-82
2022/07/31 04:06:39;;;;;;;5.10;2.00;;;18.30;91.80;;;;;;4230784;28;20100;-82
2022/07/31 04:08:40;;;;;;;2.67;1.40;;;18.30;91.80;;;;;;4230520;28;20483;-82
2022/07/31 04:10:40;;;;;;;5.00;2.22;;;18.30;91.90;;;;;;4240719;28;20070;-82
2022/07/31 04:12:41;;;;;;;2.83;1.40;;;18.30;91.90;;;;;;4247275;27;20169;-82
2022/07/31 04:14:42;;;;;;;3.08;1.63;;;18.30;91.90;;;;;;4245581;28;20058;-82
2022/07/31 04:16:42;;;;;;;4.18;1.50;;;18.30;91.90;;;;;;4245527;28;20499;-82
2022/07/31 04:18:43;;;;;;;2.58;1.70;;;18.30;91.90;;;;;;4244419;28;20088;-82
2022/07/31 04:20:44;;;;;;;3.95;1.55;;;18.30;91.90;;;;;;4246326;28;20110;-82
2022/07/31 04:22:44;;;;;;;3.70;1.55;;;18.40;91.90;;;;;;4245421;28;20043;-82
2022/07/31 04:24:45;;;;;;;5.20;2.03;;;18.30;91.80;;;;;;4245507;28;20122;-82
2022/07/31 04:26:48;;;;;;;3.38;1.38;;;18.40;91.80;;;;;;4245673;28;20422;-82
2022/07/31 04:28:49;;;;;;;6.35;1.60;;;18.40;91.80;;;;;;4245588;28;20054;-82
2022/07/31 04:30:49;;;;;;;2.65;1.40;;;18.40;91.80;;;;;;4245805;28;20051;-82
2022/07/31 04:32:50;;;;;;;3.45;1.52;;;18.40;91.80;;;;;;4240888;28;20044;-82
2022/07/31 04:34:51;;;;;;;3.63;1.60;;;18.40;91.70;;;;;;4228183;28;20059;-82
2022/07/31 04:36:52;;;;;;;6.18;2.00;;;18.50;91.80;;;;;;4228630;28;20055;-82
2022/07/31 04:38:53;;;;;;;2.60;1.40;;;18.50;91.70;;;;;;4228513;28;20549;-82
2022/07/31 04:40:53;;;;;;;3.55;1.65;;;18.50;91.80;;;;;;4229838;28;20122;-82
2022/07/31 04:42:54;;;;;;;2.88;1.63;;;18.50;91.70;;;;;;4228034;28;20058;-83
2022/07/31 04:44:55;;;;;;;3.03;2.00;;;18.60;91.60;;;;;;4238606;28;20499;-82
2022/07/31 04:47:00;;;;;;;3.05;1.77;;;18.50;91.60;;;;;;4251138;27;20046;-82
2022/07/31 04:49:00;;;;;;;3.83;2.25;;;18.50;91.60;;;;;;4245653;28;20074;-82
2022/07/31 04:51:01;;;;;;;5.13;1.67;;;18.50;91.60;;;;;;4263832;27;20039;-82
2022/07/31 04:53:03;;;;;;;1.88;1.60;;;18.60;91.60;;;;;;4266530;27;20074;-82
2022/07/31 04:55:03;;;;;;;3.40;1.70;;;18.50;91.70;;;;;;4253569;27;20050;-81
2022/07/31 04:57:04;;;;;;;6.45;1.60;;;18.50;91.60;;;;;;4250367;27;20054;-81
2022/07/31 04:59:08;;;;;;;5.05;1.70;;;18.50;91.60;;;;;;4250446;27;20090;-81
2022/07/31 05:01:09;;;;;;;5.30;1.70;;;18.50;91.70;;;;;;4250585;27;20380;-82
2022/07/31 05:03:09;;;;;;;5.25;1.52;;;18.60;91.80;;;;;;4250425;27;20117;-82
2022/07/31 05:05:10;;;;;;;5.32;1.60;;;18.60;91.80;;;;;;4261582;27;20432;-81
2022/07/31 05:07:12;;;;;;;2.95;1.50;;;18.60;91.80;;;;;;4248846;27;20043;-82
2022/07/31 05:09:15;;;;;;;2.45;1.92;;;18.60;91.70;;;;;;4267325;27;20049;-82
2022/07/31 05:11:21;;;;;;;3.38;2.00;;;18.60;91.70;;;;;;4248862;27;20554;-82
2022/07/31 05:13:22;;;;;;;5.60;1.80;;;18.60;91.70;;;;;;4267299;27;20095;-81
2022/07/31 05:15:22;;;;;;;3.33;1.70;;;18.60;91.60;;;;;;4248739;27;20047;-82
2022/07/31 05:17:23;;;;;;;5.38;1.98;;;18.60;91.60;;;;;;4266174;27;20106;-82
2022/07/31 05:19:28;;;;;;;2.67;1.65;;;18.60;91.60;;;;;;4248265;27;20047;-82
2022/07/31 05:21:33;;;;;;;2.92;1.95;;;18.60;91.60;;;;;;4266998;27;20103;-82
2022/07/31 05:23:34;;;;;;;4.03;2.03;;;18.70;91.50;;;;;;4248581;27;20091;-82
2022/07/31 05:25:35;;;;;;;4.30;1.70;;;18.70;91.50;;;;;;4266509;27;20039;-81
2022/07/31 05:27:36;;;;;;;4.22;1.83;;;18.80;91.50;;;;;;4266970;27;20496;-82
2022/07/31 05:29:37;;;;;;;2.70;1.75;;;18.80;91.50;;;;;;4248824;27;20082;-82
2022/07/31 05:31:37;;;;;;;6.63;3.08;;;18.80;91.50;;;;;;4231207;28;20052;-82
2022/07/31 05:33:38;;;;;;;4.38;1.90;;;18.80;91.50;;;;;;4248087;27;20036;-82
2022/07/31 05:35:39;;;;;;;4.80;2.00;;;18.80;91.50;;;;;;4267008;27;20042;-81
2022/07/31 05:37:40;;;;;;;2.60;1.67;;;18.80;91.50;;;;;;4262772;27;20046;-81
2022/07/31 05:39:40;;;;;;;5.30;2.00;;;18.90;91.50;;;;;;4231674;28;20134;-82
2022/07/31 05:41:43;;;;;;;3.13;2.10;;;18.90;91.50;;;;;;4249389;27;20035;-82
2022/07/31 05:43:44;;;;;;;7.28;2.22;;;18.90;91.50;;;;;;4249403;27;20325;-82
2022/07/31 05:45:48;;;;;;;3.88;2.00;;;18.90;91.50;;;;;;4249103;27;20089;-82
2022/07/31 05:47:48;;;;;;;6.53;2.75;;;18.90;91.50;;;;;;4257608;27;20153;-82
2022/07/31 05:49:49;;;;;;;2.70;1.85;;;18.90;91.50;;;;;;4248137;27;20090;-82
2022/07/31 05:51:53;;;;;;;5.68;2.50;;;19.00;91.50;;;;;;4248263;27;20126;-82
2022/07/31 05:53:53;;;;;;;3.83;2.00;;;19.00;91.60;;;;;;4249961;27;20047;-82
2022/07/31 05:55:54;;;;;;;8.60;2.28;;;19.00;91.60;;;;;;4266476;27;20039;-82
2022/07/31 05:57:55;;;;;;;5.03;1.98;;;19.00;91.60;;;;;;4248303;27;20042;-82
2022/07/31 05:59:55;;;;;;;2.92;2.03;;;19.10;91.60;;;;;;4266481;27;20046;-82
2022/07/31 06:01:57;;;;;;;3.22;2.05;;;19.10;91.60;;;;;;4246825;27;20490;-82
2022/07/31 06:03:58;;;;;;;2.88;2.10;;;19.10;91.60;;;;;;4249331;27;20449;-80
2022/07/31 06:05:59;;;;;;;4.80;1.80;;;19.20;91.60;;;;;;4230551;28;20047;-81
2022/07/31 06:08:00;;;;;;;3.63;1.85;;;19.20;91.60;;;;;;4231446;28;20511;-81
2022/07/31 06:10:01;;;;;;;3.83;2.15;;;19.20;91.60;;;;;;4249142;27;20042;-81
2022/07/31 06:12:01;;;;;;;4.45;2.30;;;19.20;91.60;;;;;;4249111;27;20046;-82
2022/07/31 06:14:02;;;;;;;5.90;2.17;;;19.20;91.60;;;;;;4249015;27;20112;-82
2022/07/31 06:16:04;;;;;;;2.97;2.13;;;19.30;91.60;;;;;;4249205;27;20096;-82
2022/07/31 06:18:04;;;;;;;6.00;2.72;;;19.30;91.60;;;;;;4230184;28;20051;-82
2022/07/31 06:20:06;;;;;;;3.20;2.30;;;19.30;91.60;;;;;;4230723;28;20403;-82
2022/07/31 06:22:06;;;;;;;6.43;2.47;;;19.30;91.50;;;;;;4234899;27;20053;-82
2022/07/31 06:24:07;;;;;;;3.40;2.35;;;19.40;91.50;;;;;;4268004;27;20066;-81
2022/07/31 06:26:08;;;;;;;3.47;2.17;;;19.40;91.40;;;;;;4265671;27;20047;-83
2022/07/31 06:28:10;;;;;;;4.32;2.40;;;19.50;91.50;;;;;;4247743;27;20096;-83
2022/07/31 06:30:11;;;;;;;4.53;2.42;;;19.40;91.40;;;;;;4264209;27;20055;-83
2022/07/31 06:32:12;;;;;;;6.20;2.60;;;19.50;91.40;;;;;;4248929;27;20114;-83
2022/07/31 06:34:13;;;;;;;3.72;2.42;;;19.50;91.30;;;;;;4230603;28;20043;-83
2022/07/31 06:36:14;;;;;;;5.10;2.30;;;19.60;91.30;;;;;;4230387;28;20154;-83
2022/07/31 06:38:15;;;;;;;6.55;2.47;;;19.70;91.30;;;;;;4213656;28;20053;-83
2022/07/31 06:40:15;;;;;;;7.68;2.50;;;19.70;91.30;;;;;;4248375;27;20451;-81
2022/07/31 06:42:21;;;;;;;3.72;2.30;;;19.80;91.20;;;;;;4254818;27;20042;-81
2022/07/31 06:44:21;;;;;;;6.97;3.25;;;19.80;91.10;;;;;;4247297;27;20054;-83
2022/07/31 06:46:22;;;;;;;4.18;2.60;;;19.90;91.00;;;;;;4265556;27;20130;-83
2022/07/31 06:48:23;;;;;;;4.25;2.45;;;19.90;91.00;;;;;;4247160;27;20047;-83
2022/07/31 06:50:24;;;;;;;3.78;2.38;;;19.90;90.90;;;;;;4265503;27;20043;-83
2022/07/31 06:52:25;;;;;;;7.03;2.80;;;20.00;90.90;;;;;;4247598;27;20456;-83
2022/07/31 06:54:26;;;;;;;4.95;2.50;;;20.10;90.80;;;;;;4246911;27;20046;-83
2022/07/31 06:56:28;;;;;;;3.65;2.25;;;20.10;90.80;;;;;;4247380;27;20047;-83
2022/07/31 06:58:30;;;;;;;3.90;2.47;;;20.20;90.70;;;;;;4265550;27;20408;-83
2022/07/31 07:00:31;;;;;;;3.53;2.80;;;20.20;90.70;;;;;;4265543;27;20066;-83
2022/07/31 07:02:33;;;;;;;5.07;2.60;;;20.20;90.70;;;;;;4265305;27;20095;-83
2022/07/31 07:04:34;;;;;;;3.47;2.17;;;20.20;90.70;;;;;;4251152;27;20508;-83
2022/07/31 07:06:34;;;;;;;4.88;2.70;;;20.20;90.70;;;;;;4229872;28;20062;-83
2022/07/31 07:08:35;;;;;;;6.32;2.50;;;20.20;90.70;;;;;;4248065;27;20039;-81
2022/07/31 07:10:36;;;;;;;4.00;2.38;;;20.30;90.70;;;;;;4248324;27;20073;-82
2022/07/31 07:12:36;;;;;;;5.22;2.38;;;20.30;90.60;;;;;;4248104;27;20043;-83
2022/07/31 07:14:37;;;;;;;4.47;2.60;;;20.30;90.60;;;;;;4247749;27;20127;-83
2022/07/31 07:16:38;;;;;;;5.78;2.35;;;20.30;90.60;;;;;;4248067;27;20050;-83
2022/07/31 07:18:38;;;;;;;4.25;2.40;;;20.30;90.50;;;;;;4229648;28;20044;-83
2022/07/31 07:20:39;;;;;;;5.05;3.15;;;20.30;90.60;;;;;;4247400;27;20472;-83
2022/07/31 07:22:40;;;;;;;6.15;2.42;;;20.40;90.60;;;;;;4248092;27;20487;-82
2022/07/31 07:24:42;;;;;;;5.55;2.88;;;20.40;90.50;;;;;;4247884;27;20035;-81
2022/07/31 07:26:42;;;;;;;9.68;2.88;;;20.40;90.50;;;;;;4249773;27;20104;-82
2022/07/31 07:28:43;;;;;;;7.22;2.67;;;20.40;90.50;;;;;;4246606;27;20126;-82
2022/07/31 07:30:44;;;;;;;5.18;2.53;;;20.50;90.50;;;;;;4246466;27;20035;-82
2022/07/31 07:32:44;;;;;;;7.13;3.50;;;20.50;90.50;;;;;;4229589;28;20089;-82
2022/07/31 07:34:45;;;;;;;9.10;3.10;;;20.60;90.50;;;;;;4246523;27;20047;-82
2022/07/31 07:36:46;;;;;;;8.02;2.70;;;20.60;90.50;;;;;;4265070;27;20047;-82
2022/07/31 07:38:47;;;;;;;3.85;2.58;;;20.60;90.30;;;;;;4265193;27;20046;-82
2022/07/31 07:40:47;;;;;;;5.03;3.13;;;20.60;90.30;;;;;;4264605;27;20041;-82
2022/07/31 07:42:48;;;;;;;4.50;2.92;;;20.70;90.20;;;;;;4246827;27;20165;-82
2022/07/31 07:44:49;;;;;;;4.22;2.55;;;20.70;90.20;;;;;;4265051;27;20133;-82
2022/07/31 07:46:50;;;;;;;7.25;2.78;;;20.70;90.10;;;;;;4265028;27;20054;-82
2022/07/31 07:48:51;;;;;;;4.97;3.05;;;20.70;90.00;;;;;;4246234;28;20044;-82
2022/07/31 07:50:52;;;;;;;7.72;3.08;;;20.70;90.00;;;;;;4246603;28;20051;-82
2022/07/31 07:52:53;;;;;;;6.40;2.83;;;20.70;89.90;;;;;;4236342;28;20070;-83
2022/07/31 07:54:53;;;;;;;6.65;3.50;;;20.80;89.70;;;;;;4247868;28;20043;-82
2022/07/31 07:56:54;;;;;;;5.05;3.20;;;20.80;89.90;;;;;;4247893;28;20046;-83
2022/07/31 07:58:55;;;;;;;6.15;3.17;;;20.90;89.50;;;;;;4229296;28;20042;-82
2022/07/31 08:00:56;;;;;;;5.35;2.97;;;21.00;89.30;;;;;;4248107;28;20035;-82
2022/07/31 08:02:57;;;;;;;8.98;3.03;;;21.10;89.20;;;;;;4247577;28;20099;-83
2022/07/31 08:04:57;;;;;;;5.78;3.35;;;21.20;88.80;;;;;;4251849;27;20497;-82
2022/07/31 08:06:58;;;;;;;5.68;3.00;;;21.30;88.30;;;;;;4246516;28;20047;-82
2022/07/31 08:08:59;;;;;;;4.65;3.17;;;21.30;87.80;;;;;;4264915;27;20375;-82
2022/07/31 08:11:01;;;;;;;6.03;3.28;;;21.30;87.20;;;;;;4246078;28;20134;-82
2022/07/31 08:13:02;;;;;;;6.30;3.22;;;21.40;87.00;;;;;;4265190;27;20593;-82
2022/07/31 08:15:04;;;;;;;4.45;3.25;;;21.50;86.70;;;;;;4264570;27;20042;-82
2022/07/31 08:17:10;;;;;;;6.47;3.38;;;21.60;86.50;;;;;;4246488;28;20043;-82
2022/07/31 08:19:12;;;;;;;4.88;3.28;;;21.80;86.00;;;;;;4264889;27;20066;-82
2022/07/31 08:21:15;;;;;;;9.93;4.30;;;21.90;85.80;;;;;;4246738;28;20079;-82
2022/07/31 08:23:16;;;;;;;7.90;3.42;;;21.90;85.80;;;;;;4251458;27;20039;-83
2022/07/31 08:25:16;;;;;;;7.00;3.60;;;21.90;86.00;;;;;;4247177;28;20062;-82
2022/07/31 08:27:23;;;;;;;5.10;3.30;;;21.90;86.20;;;;;;4231129;28;20136;-82
2022/07/31 08:29:24;;;;;;;8.88;3.67;;;21.80;86.50;;;;;;4251082;27;20047;-83
2022/07/31 08:31:24;;;;;;;5.57;3.38;;;21.80;86.90;;;;;;4250769;27;20046;-82
2022/07/31 08:33:26;;;;;;;4.88;3.17;;;21.80;87.20;;;;;;4250375;27;20077;-82
2022/07/31 08:35:26;;;;;;;6.47;3.60;;;21.80;87.50;;;;;;4232817;28;20499;-82
2022/07/31 08:37:27;;;;;;;5.93;3.22;;;21.80;87.80;;;;;;4251062;27;20043;-82
2022/07/31 08:39:28;;;;;;;5.63;2.92;;;21.80;87.80;;;;;;4232558;28;20039;-82
2022/07/31 08:41:29;;;;;;;5.75;3.15;;;21.90;87.90;;;;;;4250635;27;20529;-82
2022/07/31 08:43:30;;;;;;;7.55;3.08;;;21.90;88.00;;;;;;4250217;27;20047;-83
2022/07/31 08:45:34;;;;;;;6.03;2.75;;;22.00;88.00;;;;;;4232243;28;20146;-82
2022/07/31 08:47:36;;;;;;;6.90;3.50;;;22.00;88.20;;;;;;4250982;27;20047;-82
2022/07/31 08:49:39;;;;;;;8.63;2.97;;;22.00;88.30;;;;;;4257200;27;20087;-82
2022/07/31 08:51:42;;;;;;;5.57;2.97;;;22.00;88.70;;;;;;4249979;27;20055;-82
2022/07/31 08:53:44;;;;;;;6.35;3.05;;;22.00;88.70;;;;;;4267421;27;20053;-82
2022/07/31 08:55:45;;;;;;;6.55;3.50;;;22.00;88.80;;;;;;4249455;27;20496;-83
2022/07/31 08:57:47;;;;;;;10.23;3.42;;;22.00;89.00;;;;;;4267528;27;20047;-82
2022/07/31 08:59:51;;;;;;;9.27;4.03;;;22.00;89.20;;;;;;4267276;27;20039;-83
2022/07/31 09:01:55;;;;;;;6.55;3.75;;;21.90;89.80;;;;;;4249267;27;20122;-83
2022/07/31 09:03:57;;;;;;;15.45;4.28;;;21.80;90.10;;;;;;4231812;28;20454;-82
2022/07/31 09:05:58;;;;;;;6.75;3.55;;;21.70;90.40;;;;;;4267678;27;20038;-83
2022/07/31 09:07:59;;;;;;;9.02;4.15;;;21.60;90.70;;;;;;4267454;27;20112;-82
2022/07/31 09:10:00;;;;;;;9.38;3.75;;;21.50;91.10;;;;;;4249373;27;20469;-82
2022/07/31 09:12:01;;;;;;;6.65;3.70;;;21.40;91.30;;;;;;4268260;27;20049;-82
2022/07/31 09:14:03;;;;;;;12.40;3.83;;;21.40;91.70;;;;;;4267688;27;20125;-83
2022/07/31 09:16:05;;;;;;;10.85;4.68;;;21.30;92.30;;;;;;4267809;27;20049;-83
2022/07/31 09:18:17;;;;;;;8.60;4.82;;;21.20;92.60;;;;;;4266268;27;20044;-83
2022/07/31 09:20:26;;;;;;;11.98;4.90;;;21.20;93.80;;;;;;4234363;28;20510;-84
2022/07/31 09:22:28;;;;;;;;;;;21.10;94.10;;;;;;4250650;27;20047;-84
2022/07/31 09:24:31;;;;;;;12.60;5.35;;;21.00;95.50;;;;;;4253038;27;19927;-82
2022/07/31 09:26:33;;;;;;;13.80;4.90;;;21.00;94.40;;;;;;4234056;28;20488;-82
2022/07/31 09:28:45;;;;;;;10.63;5.18;;;20.90;95.00;;;;;;4231770;28;20047;-82
2022/07/31 09:30:55;;;;;;;11.07;6.00;;;20.90;96.00;;;;;;4232055;28;20052;-83
2022/07/31 09:33:10;;;;;;;12.07;5.95;;;20.80;96.40;;;;;;4250036;27;20437;-82
2022/07/31 09:35:14;;;;;;;12.93;6.40;;;20.70;97.20;;;;;;4249326;27;20082;-82
2022/07/31 09:37:19;;;;;;;10.15;6.32;;;20.70;97.80;;;;;;4231739;28;20136;-82
2022/07/31 09:39:20;;;;;;;9.43;6.30;;;20.60;98.10;;;;;;4231530;28;20048;-82
2022/07/31 09:41:22;;;;;;;12.63;6.90;;;20.70;98.30;;;;;;4250073;27;20521;-82
2022/07/31 09:43:23;;;;;;;10.88;5.72;;;20.70;98.70;;;;;;4214516;28;20090;-82
2022/07/31 09:45:24;;;;;;;11.75;6.63;;;20.60;99.00;;;;;;4230742;28;20051;-82
2022/07/31 09:47:27;;;;;;;12.45;7.07;;;20.70;99.30;;;;;;4249689;27;20464;-82
2022/07/31 09:49:32;;;;;;;14.07;7.00;;;20.70;99.60;;;;;;4246241;27;20533;-82
2022/07/31 09:51:41;;;;;;;12.00;6.78;;;20.70;99.90;;;;;;4248610;27;20133;-82
2022/07/31 09:53:44;;;;;;;11.00;7.07;;;20.70;99.90;;;;;;4238214;27;20050;-82
2022/07/31 09:56:06;;;;;;;10.02;6.80;;;20.60;99.90;;;;;;4231167;28;20036;-82
2022/07/31 09:58:06;;;;;;;12.48;6.65;;;20.50;99.90;;;;;;4249778;27;20086;-82
2022/07/31 10:00:08;;;;;;;12.40;7.93;;;20.40;99.90;;;;;;4230927;28;20047;-82
2022/07/31 10:02:13;;;;;;;12.88;7.15;;;20.40;99.90;;;;;;4231696;28;20535;-83
2022/07/31 10:04:17;;;;;;;13.05;6.97;;;20.30;99.90;;;;;;4249580;27;20483;-83
2022/07/31 10:06:19;;;;;;;12.57;6.95;;;20.30;99.90;;;;;;4231265;28;20055;-83
2022/07/31 10:08:21;;;;;;;10.45;7.03;;;20.20;99.90;;;;;;4230632;28;20101;-83
2022/07/31 10:10:22;;;;;;;12.85;7.55;;;20.20;99.90;;;;;;4248834;27;20491;-82
2022/07/31 10:12:28;;;;;;;14.82;7.60;;;20.10;99.90;;;;;;4249399;27;20043;-83
2022/07/31 10:14:38;;;;;;;15.88;7.50;;;20.10;99.90;;;;;;4249345;27;20047;-83
2022/07/31 10:16:40;;;;;;;15.32;7.72;;;20.00;99.90;;;;;;4250907;27;20047;-83
2022/07/31 10:18:48;;;;;;;12.93;8.13;;;20.00;99.90;;;;;;4265960;27;20082;-83
2022/07/31 10:20:53;;;;;;;13.55;8.25;;;20.00;99.90;;;;;;4266366;27;20539;-83
2022/07/31 10:23:13;;;;;;;14.45;7.82;;;20.00;99.90;;;;;;4234556;27;20051;-83
2022/07/31 10:25:24;;;;;;;12.30;8.30;;;20.00;99.90;;;;;;4230169;28;20070;-83
2022/07/31 10:27:25;;;;;;;14.50;8.50;;;20.10;99.90;;;;;;4248918;27;20122;-83
2022/07/31 10:29:26;;;;;;;16.20;9.35;;;20.10;99.90;;;;;;4249032;27;20035;-83
2022/07/31 10:31:27;;;;;;;12.90;7.43;;;20.10;99.90;;;;;;4230956;28;20051;-83
2022/07/31 10:33:28;;;;;;;12.23;7.75;;;20.10;99.90;;;;;;4230753;28;20047;-83
2022/07/31 10:35:29;;;;;;;12.35;7.13;;;20.10;99.90;;;;;;4230150;28;20495;-84